createdAt,value
2022-07-29T00:01:31.797Z,15.27
2022-07-29T00:04:18.223Z,15.19
2022-07-29T00:07:06.221Z,15.22
2022-07-29T00:09:53.774Z,15.00
2022-07-29T00:12:43.225Z,15.13
2022-07-29T00:15:30.123Z,15.06
2022-07-29T00:18:16.315Z,14.97
2022-07-29T00:21:01.918Z,14.99
2022-07-29T00:23:48.096Z,14.85
2022-07-29T00:26:34.320Z,14.77
2022-07-29T00:29:36.088Z,14.74
2022-07-29T00:32:22.821Z,14.80
2022-07-29T00:35:27.707Z,14.76
2022-07-29T00:38:15.050Z,14.81
2022-07-29T00:41:01.912Z,14.62
2022-07-29T00:43:48.336Z,14.71
2022-07-29T00:46:37.302Z,14.70
2022-07-29T00:49:26.814Z,14.67
2022-07-29T00:52:18.209Z,14.64
2022-07-29T00:55:08.789Z,14.64
2022-07-29T00:57:56.211Z,14.57
2022-07-29T01:00:42.394Z,14.53
2022-07-29T01:03:28.713Z,14.42
2022-07-29T01:06:16.818Z,14.54
2022-07-29T01:09:03.774Z,14.46
2022-07-29T01:11:50.383Z,14.45
2022-07-29T01:14:37.879Z,14.40
2022-07-29T01:17:53.357Z,14.45
2022-07-29T01:21:13.789Z,14.38
2022-07-29T01:24:08.628Z,14.33
2022-07-29T01:27:16.311Z,14.30
2022-07-29T01:30:05.342Z,14.09
2022-07-29T01:32:56.325Z,14.21
2022-07-29T01:35:46.534Z,14.16
2022-07-29T01:38:35.445Z,14.11
2022-07-29T01:41:22.851Z,14.11
2022-07-29T01:44:15.245Z,14.04
2022-07-29T01:47:05.484Z,14.01
2022-07-29T01:49:53.778Z,13.91
2022-07-29T01:52:47.942Z,14.07
2022-07-29T01:55:41.554Z,14.03
2022-07-29T01:58:29.797Z,14.00
2022-07-29T02:01:17.066Z,13.77
2022-07-29T02:04:07.702Z,13.93
2022-07-29T02:06:59.537Z,13.90
2022-07-29T02:09:48.812Z,13.84
2022-07-29T02:12:36.757Z,13.86
2022-07-29T02:15:25.078Z,13.72
2022-07-29T02:18:18.147Z,13.64
2022-07-29T02:21:05.828Z,13.66
2022-07-29T02:24:04.322Z,13.69
2022-07-29T02:26:51.334Z,13.65
2022-07-29T02:29:38.798Z,13.60
2022-07-29T02:32:29.801Z,13.67
2022-07-29T02:35:17.824Z,13.70
2022-07-29T02:38:23.389Z,13.66
2022-07-29T02:41:12.769Z,13.36
2022-07-29T02:44:05.906Z,13.57
2022-07-29T02:47:00.707Z,13.50
2022-07-29T02:49:56.072Z,13.33
2022-07-29T02:52:46.863Z,13.54
2022-07-29T02:55:38.140Z,13.51
2022-07-29T02:58:32.230Z,13.46
2022-07-29T03:01:22.955Z,13.58
2022-07-29T03:04:11.179Z,13.67
2022-07-29T03:07:00.700Z,13.60
2022-07-29T03:09:47.684Z,13.51
2022-07-29T03:12:33.819Z,13.58
2022-07-29T03:15:21.157Z,13.45
2022-07-29T03:18:10.907Z,13.60
2022-07-29T03:20:57.807Z,13.54
2022-07-29T03:23:46.851Z,13.59
2022-07-29T03:26:33.589Z,13.52
2022-07-29T03:29:19.067Z,13.65
2022-07-29T03:32:08.671Z,13.66
2022-07-29T03:34:54.841Z,13.71
2022-07-29T03:37:40.960Z,13.62
2022-07-29T03:40:33.216Z,13.73
2022-07-29T03:43:20.704Z,13.75
2022-07-29T03:46:11.855Z,13.66
2022-07-29T03:49:01.420Z,13.88
2022-07-29T03:51:47.726Z,13.91
2022-07-29T03:54:34.038Z,14.10
2022-07-29T03:57:25.024Z,14.03
2022-07-29T04:00:12.024Z,14.18
2022-07-29T04:02:59.380Z,14.14
2022-07-29T04:05:58.546Z,14.03
2022-07-29T04:08:44.429Z,14.12
2022-07-29T04:11:30.694Z,14.20
2022-07-29T04:14:17.217Z,14.32
2022-07-29T04:17:05.875Z,14.69
2022-07-29T04:19:52.990Z,15.21
2022-07-29T04:22:38.988Z,15.67
2022-07-29T04:25:25.253Z,16.18
2022-07-29T04:28:12.518Z,16.55
2022-07-29T04:31:05.443Z,16.72
2022-07-29T04:33:51.738Z,17.22
2022-07-29T04:36:37.960Z,17.30
2022-07-29T04:39:24.419Z,17.40
2022-07-29T04:42:11.067Z,17.71
2022-07-29T04:44:58.397Z,17.72
2022-07-29T04:47:47.644Z,18.03
2022-07-29T04:50:33.680Z,17.90
2022-07-29T04:53:19.898Z,18.17
2022-07-29T04:56:06.811Z,18.23
2022-07-29T04:58:53.347Z,18.21
2022-07-29T05:01:39.455Z,18.39
2022-07-29T05:04:25.473Z,18.52
2022-07-29T05:07:11.217Z,18.71
2022-07-29T05:09:58.024Z,18.73
2022-07-29T05:12:44.131Z,18.94
2022-07-29T05:15:29.921Z,19.05
2022-07-29T05:18:16.537Z,19.17
2022-07-29T05:21:03.899Z,18.85
2022-07-29T05:23:50.342Z,19.02
2022-07-29T05:26:36.329Z,19.00
2022-07-29T05:29:43.095Z,19.00
2022-07-29T05:32:29.137Z,19.17
2022-07-29T05:35:16.438Z,19.09
2022-07-29T05:38:03.532Z,19.33
2022-07-29T05:40:50.867Z,19.36
2022-07-29T05:43:37.379Z,19.42
2022-07-29T05:46:31.193Z,19.76
2022-07-29T05:49:29.550Z,19.79
2022-07-29T05:52:17.982Z,19.92
2022-07-29T05:55:06.567Z,19.72
2022-07-29T05:57:53.576Z,19.86
2022-07-29T06:00:39.274Z,19.81
2022-07-29T06:03:25.256Z,20.02
2022-07-29T06:06:11.879Z,20.25
2022-07-29T06:09:12.491Z,20.46
2022-07-29T06:12:02.777Z,20.59
2022-07-29T06:14:56.342Z,20.83
2022-07-29T06:18:00.191Z,21.00
2022-07-29T06:20:50.239Z,21.11
2022-07-29T06:23:40.909Z,21.29
2022-07-29T06:26:33.363Z,21.41
2022-07-29T06:29:23.258Z,21.66
2022-07-29T06:32:10.289Z,21.74
2022-07-29T06:35:11.782Z,21.39
2022-07-29T06:38:25.662Z,21.98
2022-07-29T06:41:17.824Z,22.14
2022-07-29T06:44:18.431Z,22.22
2022-07-29T06:47:10.089Z,22.20
2022-07-29T06:49:59.258Z,22.40
2022-07-29T06:52:50.580Z,22.53
2022-07-29T06:55:39.609Z,22.69
2022-07-29T06:58:29.808Z,22.73
2022-07-29T07:01:16.668Z,22.68
2022-07-29T07:04:03.363Z,22.75
2022-07-29T07:06:50.343Z,22.64
2022-07-29T07:09:40.118Z,22.78
2022-07-29T07:12:27.451Z,22.93
2022-07-29T07:15:15.306Z,23.07
2022-07-29T07:18:02.502Z,23.03
2022-07-29T07:20:51.012Z,23.06
2022-07-29T07:23:40.747Z,23.00
2022-07-29T07:26:29.233Z,22.99
2022-07-29T07:29:17.106Z,23.16
2022-07-29T07:32:04.211Z,23.07
2022-07-29T07:34:50.673Z,23.30
2022-07-29T07:37:37.210Z,23.27
2022-07-29T07:40:23.837Z,23.33
2022-07-29T07:43:09.591Z,23.43
2022-07-29T07:45:56.068Z,23.38
2022-07-29T07:48:41.817Z,23.43
2022-07-29T07:51:28.189Z,23.38
2022-07-29T07:54:13.916Z,23.17
2022-07-29T07:57:01.578Z,23.34
2022-07-29T07:59:49.286Z,23.15
2022-07-29T08:02:36.094Z,22.98
2022-07-29T08:05:21.657Z,22.78
2022-07-29T08:08:08.250Z,22.86
2022-07-29T08:10:54.141Z,22.93
2022-07-29T08:13:40.218Z,23.00
2022-07-29T08:16:26.505Z,22.98
2022-07-29T08:19:13.424Z,22.87
2022-07-29T08:21:59.700Z,22.66
2022-07-29T08:25:04.518Z,22.75
2022-07-29T08:27:50.919Z,22.65
2022-07-29T08:30:37.349Z,22.62
2022-07-29T08:33:23.007Z,22.60
2022-07-29T08:36:09.150Z,22.61
2022-07-29T08:38:55.200Z,22.61
2022-07-29T08:41:44.672Z,22.47
2022-07-29T08:44:45.214Z,22.72
2022-07-29T08:47:32.722Z,22.82
2022-07-29T08:50:20.065Z,22.70
2022-07-29T08:53:08.755Z,22.80
2022-07-29T08:55:55.847Z,22.63
2022-07-29T08:58:42.432Z,22.55
2022-07-29T09:01:35.860Z,22.75
2022-07-29T09:04:32.263Z,22.79
2022-07-29T09:07:20.196Z,22.80
2022-07-29T09:10:07.199Z,22.90
2022-07-29T09:12:53.404Z,22.93
2022-07-29T09:15:40.053Z,22.86
2022-07-29T09:18:45.231Z,23.03
2022-07-29T09:21:59.579Z,22.91
2022-07-29T09:24:48.894Z,22.98
2022-07-29T09:27:35.691Z,22.93
2022-07-29T09:30:28.849Z,22.74
2022-07-29T09:33:18.616Z,22.84
2022-07-29T09:36:06.917Z,22.69
2022-07-29T09:39:00.961Z,22.93
2022-07-29T09:41:53.881Z,23.02
2022-07-29T09:44:49.109Z,22.88
2022-07-29T09:47:50.293Z,22.91
2022-07-29T09:50:37.907Z,23.04
2022-07-29T09:53:38.083Z,23.12
2022-07-29T09:56:41.495Z,23.08
2022-07-29T09:59:27.722Z,22.85
2022-07-29T10:02:18.905Z,23.12
2022-07-29T10:05:22.022Z,23.07
2022-07-29T10:08:09.168Z,23.20
2022-07-29T10:11:10.427Z,23.01
2022-07-29T10:13:57.013Z,23.56
2022-07-29T10:16:42.511Z,23.56
2022-07-29T10:19:32.941Z,23.63
2022-07-29T10:22:36.833Z,23.64
2022-07-29T10:25:26.486Z,23.64
2022-07-29T10:28:16.520Z,23.67
2022-07-29T10:31:06.917Z,23.58
2022-07-29T10:34:10.934Z,23.65
2022-07-29T10:37:46.040Z,23.72
2022-07-29T10:41:01.553Z,23.44
2022-07-29T10:43:51.446Z,23.70
2022-07-29T10:46:41.284Z,23.81
2022-07-29T10:49:37.147Z,23.97
2022-07-29T10:52:59.663Z,24.08
2022-07-29T10:55:48.079Z,24.03
2022-07-29T10:58:34.112Z,24.09
2022-07-29T11:01:37.145Z,24.21
2022-07-29T11:04:45.373Z,24.23
2022-07-29T11:07:45.747Z,24.06
2022-07-29T11:10:32.715Z,24.02
2022-07-29T11:13:52.339Z,24.08
2022-07-29T11:17:09.120Z,24.15
2022-07-29T11:20:34.698Z,24.26
2022-07-29T11:23:33.965Z,24.47
2022-07-29T11:26:23.294Z,24.54
2022-07-29T11:29:25.650Z,24.63
2022-07-29T11:32:22.746Z,24.78
2022-07-29T11:35:37.886Z,24.79
2022-07-29T11:38:28.763Z,24.81
2022-07-29T11:41:25.608Z,24.76
2022-07-29T11:44:14.037Z,24.72
2022-07-29T11:47:11.294Z,24.65
2022-07-29T11:50:00.222Z,24.66
2022-07-29T11:55:58.370Z,24.14
2022-07-29T11:58:44.355Z,24.11
2022-07-29T12:01:30.935Z,24.27
2022-07-29T12:04:18.998Z,24.12
2022-07-29T12:09:56.998Z,24.14
2022-07-29T12:12:43.824Z,24.19
2022-07-29T12:15:45.860Z,24.09
2022-07-29T12:18:32.876Z,24.19
2022-07-29T12:21:19.906Z,24.31
2022-07-29T12:24:12.715Z,24.22
2022-07-29T12:27:02.520Z,24.49
2022-07-29T12:29:58.932Z,24.58
2022-07-29T12:32:48.441Z,24.68
2022-07-29T12:35:36.893Z,24.66
2022-07-29T12:38:23.880Z,24.65
2022-07-29T12:41:11.106Z,24.68
2022-07-29T12:43:57.458Z,24.65
2022-07-29T12:46:43.737Z,24.73
2022-07-29T12:49:30.875Z,24.66
2022-07-29T12:52:32.811Z,24.66
2022-07-29T12:55:40.671Z,24.54
2022-07-29T12:58:39.053Z,24.60
2022-07-29T13:01:24.979Z,24.61
2022-07-29T13:04:11.312Z,24.53
2022-07-29T13:07:04.908Z,24.47
2022-07-29T13:09:52.082Z,24.48
2022-07-29T13:12:38.532Z,24.52
2022-07-29T13:15:24.501Z,24.46
2022-07-29T13:18:32.727Z,24.51
2022-07-29T13:21:20.020Z,24.33
2022-07-29T13:24:09.664Z,24.41
2022-07-29T13:26:55.832Z,24.40
2022-07-29T13:29:41.788Z,24.47
2022-07-29T13:32:30.358Z,24.46
2022-07-29T13:35:16.459Z,24.48
2022-07-29T13:38:02.763Z,24.61
2022-07-29T13:40:49.261Z,24.44
2022-07-29T13:43:36.070Z,24.63
2022-07-29T13:46:24.228Z,24.70
2022-07-29T13:49:11.588Z,24.51
2022-07-29T13:52:00.753Z,24.48
2022-07-29T13:54:47.595Z,24.69
2022-07-29T13:57:33.503Z,24.57
2022-07-29T14:00:20.559Z,24.69
2022-07-29T14:03:07.550Z,24.73
2022-07-29T14:05:54.403Z,24.60
2022-07-29T14:08:41.535Z,24.71
2022-07-29T14:11:27.616Z,24.68
2022-07-29T14:14:13.458Z,24.41
2022-07-29T14:17:00.130Z,24.49
2022-07-29T14:19:45.788Z,24.60
2022-07-29T14:22:32.430Z,24.53
2022-07-29T14:25:18.305Z,24.59
2022-07-29T14:28:06.995Z,24.74
2022-07-29T14:30:53.093Z,24.56
2022-07-29T14:33:39.459Z,24.66
2022-07-29T14:36:26.114Z,24.60
2022-07-29T14:39:12.441Z,24.68
2022-07-29T14:41:58.972Z,24.65
2022-07-29T14:44:45.613Z,24.71
2022-07-29T14:47:34.363Z,24.69
2022-07-29T14:50:23.367Z,24.65
2022-07-29T14:53:18.489Z,24.59
2022-07-29T14:56:33.885Z,24.60
2022-07-29T14:59:13.860Z,24.57
2022-07-29T15:02:01.743Z,24.56
2022-07-29T15:04:49.823Z,24.51
2022-07-29T15:07:36.731Z,24.42
2022-07-29T15:10:24.844Z,24.35
2022-07-29T15:13:17.675Z,24.36
2022-07-29T15:16:04.453Z,24.27
2022-07-29T15:18:51.614Z,24.39
2022-07-29T15:21:48.567Z,24.25
2022-07-29T15:24:35.801Z,24.30
2022-07-29T15:27:23.369Z,24.30
2022-07-29T15:30:11.451Z,24.31
2022-07-29T15:33:17.235Z,24.31
2022-07-29T15:36:05.613Z,24.12
2022-07-29T15:38:54.589Z,24.17
2022-07-29T15:41:40.726Z,24.09
2022-07-29T15:44:28.269Z,24.08
2022-07-29T15:47:17.860Z,24.08
2022-07-29T15:50:14.547Z,23.97
2022-07-29T15:53:02.196Z,24.16
2022-07-29T15:55:48.040Z,24.12
2022-07-29T15:58:34.792Z,24.05
2022-07-29T16:01:21.450Z,24.06
2022-07-29T16:04:08.655Z,24.07
2022-07-29T16:06:55.788Z,24.01
2022-07-29T16:09:49.289Z,24.00
2022-07-29T16:12:42.937Z,24.13
2022-07-29T16:15:30.035Z,24.06
2022-07-29T16:18:18.187Z,24.22
2022-07-29T16:21:06.221Z,24.20
2022-07-29T16:23:53.228Z,24.15
2022-07-29T16:26:39.747Z,23.98
2022-07-29T16:29:26.347Z,23.86
2022-07-29T16:32:14.518Z,24.06
2022-07-29T16:35:09.384Z,24.06
2022-07-29T16:37:57.845Z,23.99
2022-07-29T16:40:44.538Z,24.04
2022-07-29T16:43:31.321Z,23.89
2022-07-29T16:46:19.163Z,24.01
2022-07-29T16:49:06.596Z,23.97
2022-07-29T16:51:54.257Z,23.98
2022-07-29T16:54:45.324Z,23.99
2022-07-29T16:57:32.652Z,24.00
2022-07-29T17:00:21.181Z,24.02
2022-07-29T17:03:07.482Z,23.90
2022-07-29T17:05:55.433Z,23.87
2022-07-29T17:08:42.381Z,23.79
2022-07-29T17:11:51.949Z,23.80
2022-07-29T17:14:35.484Z,23.71
2022-07-29T17:17:39.179Z,23.66
2022-07-29T17:20:28.514Z,23.61
2022-07-29T17:23:15.835Z,23.57
2022-07-29T17:26:02.227Z,23.58
2022-07-29T17:28:49.213Z,23.55
2022-07-29T17:31:38.133Z,23.52
2022-07-29T17:34:24.387Z,23.39
2022-07-29T17:37:11.570Z,23.43
2022-07-29T17:40:00.396Z,23.38
2022-07-29T17:42:47.346Z,23.40
2022-07-29T17:45:48.787Z,23.39
2022-07-29T17:48:37.129Z,23.19
2022-07-29T17:51:25.617Z,23.28
2022-07-29T17:54:12.423Z,23.24
2022-07-29T17:56:59.284Z,23.18
2022-07-29T17:59:45.576Z,23.13
2022-07-29T18:02:32.148Z,23.08
2022-07-29T18:05:18.298Z,23.05
2022-07-29T18:08:05.199Z,23.00
2022-07-29T18:10:52.001Z,22.75
2022-07-29T18:13:39.330Z,22.88
2022-07-29T18:16:26.056Z,22.78
2022-07-29T18:19:12.480Z,22.73
2022-07-29T18:22:04.725Z,22.69
2022-07-29T18:24:51.301Z,22.45
2022-07-29T18:27:38.088Z,22.53
2022-07-29T18:30:24.255Z,22.43
2022-07-29T18:33:22.780Z,22.43
2022-07-29T18:36:11.659Z,22.19
2022-07-29T18:39:00.935Z,22.23
2022-07-29T18:41:51.377Z,22.21
2022-07-29T18:44:43.522Z,21.99
2022-07-29T18:47:31.994Z,22.01
2022-07-29T18:50:20.075Z,22.01
2022-07-29T18:53:08.387Z,21.93
2022-07-29T18:55:58.538Z,21.84
2022-07-29T18:58:45.840Z,21.60
2022-07-29T19:01:32.388Z,21.70
2022-07-29T19:04:18.847Z,21.52
2022-07-29T19:07:05.115Z,21.59
2022-07-29T19:09:53.041Z,21.45
2022-07-29T19:12:39.699Z,21.44
2022-07-29T19:15:25.844Z,21.41
2022-07-29T19:18:13.344Z,21.21
2022-07-29T19:20:59.982Z,21.32
2022-07-29T19:24:05.999Z,21.25
2022-07-29T19:26:52.215Z,21.05
2022-07-29T19:29:38.181Z,20.97
2022-07-29T19:32:25.616Z,21.08
2022-07-29T19:35:30.164Z,21.03
2022-07-29T19:38:16.083Z,20.90
2022-07-29T19:41:02.344Z,20.74
2022-07-29T19:43:51.272Z,20.72
2022-07-29T19:46:43.031Z,20.77
2022-07-29T19:49:29.542Z,20.46
2022-07-29T19:52:17.022Z,20.65
2022-07-29T19:55:07.664Z,20.59
2022-07-29T19:57:53.843Z,20.58
2022-07-29T20:00:43.524Z,20.53
2022-07-29T20:03:29.927Z,20.48
2022-07-29T20:06:18.323Z,20.42
2022-07-29T20:09:06.105Z,20.33
2022-07-29T20:11:52.776Z,20.30
2022-07-29T20:14:38.758Z,20.28
2022-07-29T20:17:25.807Z,20.20
2022-07-29T20:20:12.200Z,20.12
2022-07-29T20:22:59.567Z,20.09
2022-07-29T20:25:45.807Z,20.03
2022-07-29T20:28:32.440Z,19.95
2022-07-29T20:31:19.034Z,19.90
2022-07-29T20:34:05.167Z,19.82
2022-07-29T20:36:51.352Z,19.63
2022-07-29T20:39:37.859Z,19.71
2022-07-29T20:42:24.374Z,19.64
2022-07-29T20:45:12.291Z,19.64
2022-07-29T20:47:58.635Z,19.60
2022-07-29T20:50:46.292Z,19.52
2022-07-29T20:53:34.530Z,19.37
2022-07-29T20:56:21.807Z,19.49
2022-07-29T20:59:09.139Z,19.44
2022-07-29T21:01:55.788Z,19.36
2022-07-29T21:04:44.219Z,19.30
2022-07-29T21:07:30.761Z,18.99
2022-07-29T21:10:18.337Z,19.06
2022-07-29T21:13:04.961Z,18.88
2022-07-29T21:15:52.095Z,18.92
2022-07-29T21:18:41.649Z,18.87
2022-07-29T21:21:28.032Z,18.75
2022-07-29T21:24:15.054Z,18.68
2022-07-29T21:27:21.560Z,18.58
2022-07-29T21:30:09.022Z,18.53
2022-07-29T21:32:54.967Z,18.52
2022-07-29T21:36:06.631Z,18.36
2022-07-29T21:38:47.693Z,18.29
2022-07-29T21:41:37.490Z,18.31
2022-07-29T21:44:23.642Z,18.26
2022-07-29T21:47:10.642Z,18.25
2022-07-29T21:49:56.758Z,18.20
2022-07-29T21:52:43.235Z,17.99
2022-07-29T21:55:30.109Z,18.11
2022-07-29T21:58:18.753Z,18.10
2022-07-29T22:01:05.104Z,18.00
2022-07-29T22:03:51.367Z,17.85
2022-07-29T22:06:37.204Z,17.88
2022-07-29T22:09:24.069Z,17.90
2022-07-29T22:12:10.037Z,17.77
2022-07-29T22:14:56.206Z,17.82
2022-07-29T22:17:42.205Z,17.77
2022-07-29T22:20:28.923Z,17.68
2022-07-29T22:23:14.980Z,17.67
2022-07-29T22:26:03.905Z,17.59
2022-07-29T22:28:50.007Z,17.59
2022-07-29T22:31:36.068Z,17.54
2022-07-29T22:34:22.443Z,17.46
2022-07-29T22:37:08.594Z,17.44
2022-07-29T22:39:54.492Z,17.42
2022-07-29T22:42:40.895Z,17.32
2022-07-29T22:45:28.419Z,17.28
2022-07-29T22:48:14.745Z,17.27
2022-07-29T22:51:01.777Z,17.23
2022-07-29T22:53:47.813Z,17.13
2022-07-29T22:56:34.428Z,17.03
2022-07-29T22:59:20.547Z,17.12
2022-07-29T23:02:07.233Z,17.04
2022-07-29T23:04:54.793Z,17.01
2022-07-29T23:07:40.654Z,17.02
2022-07-29T23:10:28.662Z,16.83
2022-07-29T23:13:15.766Z,16.94
2022-07-29T23:16:02.755Z,16.97
2022-07-29T23:18:49.416Z,16.98
2022-07-29T23:21:41.830Z,16.97
2022-07-29T23:24:28.558Z,16.82
2022-07-29T23:27:14.766Z,16.95
2022-07-29T23:30:01.534Z,16.98
2022-07-29T23:32:47.911Z,16.94
2022-07-29T23:35:34.219Z,16.79
2022-07-29T23:38:23.110Z,16.96
2022-07-29T23:41:10.653Z,16.95
2022-07-29T23:43:58.570Z,16.89
2022-07-29T23:46:46.198Z,16.95
2022-07-29T23:49:32.727Z,16.89
2022-07-29T23:52:18.540Z,16.88
2022-07-29T23:55:36.799Z,16.76
2022-07-29T23:58:11.002Z,16.80
